createdAt,value
2019-03-23T00:01:15.180Z,9.50
2019-03-23T00:03:43.348Z,9.50
2019-03-23T00:06:11.298Z,9.60
2019-03-23T00:08:39.672Z,9.60
2019-03-23T00:11:07.641Z,9.60
2019-03-23T00:13:35.664Z,9.50
2019-03-23T00:16:03.591Z,9.60
2019-03-23T00:18:31.650Z,9.50
2019-03-23T00:20:59.611Z,9.50
2019-03-23T00:23:27.572Z,9.50
2019-03-23T00:25:55.643Z,9.50
2019-03-23T00:28:23.654Z,9.50
2019-03-23T00:30:51.721Z,9.60
2019-03-23T00:33:19.792Z,9.60
2019-03-23T00:35:47.968Z,9.50
2019-03-23T00:38:15.925Z,9.50
2019-03-23T00:40:43.890Z,9.50
2019-03-23T00:43:11.869Z,9.60
2019-03-23T00:45:39.833Z,9.60
2019-03-23T00:48:07.824Z,9.60
2019-03-23T00:50:35.775Z,9.60
2019-03-23T00:53:03.757Z,9.60
2019-03-23T00:55:31.715Z,9.60
2019-03-23T00:57:59.709Z,9.60
2019-03-23T01:00:27.695Z,9.70
2019-03-23T01:02:55.689Z,9.70
2019-03-23T01:05:23.676Z,9.70
2019-03-23T01:07:51.629Z,9.70
2019-03-23T01:10:19.595Z,9.70
2019-03-23T01:12:47.672Z,9.70
2019-03-23T01:15:15.745Z,9.70
2019-03-23T01:17:43.704Z,9.80
2019-03-23T01:20:12.205Z,9.70
2019-03-23T01:22:40.168Z,9.70
2019-03-23T01:25:08.454Z,9.70
2019-03-23T01:27:36.436Z,9.70
2019-03-23T01:30:06.274Z,9.70
2019-03-23T01:32:34.236Z,9.80
2019-03-23T01:35:02.204Z,9.70
2019-03-23T01:37:30.276Z,9.70
2019-03-23T01:39:58.328Z,9.70
2019-03-23T01:42:26.296Z,9.70
2019-03-23T01:44:54.286Z,9.70
2019-03-23T01:47:22.261Z,9.70
2019-03-23T01:49:50.317Z,9.70
2019-03-23T01:52:18.478Z,9.60
2019-03-23T01:54:46.441Z,9.60
2019-03-23T01:57:14.413Z,9.70
2019-03-23T01:59:42.396Z,9.70
2019-03-23T02:02:10.453Z,9.70
2019-03-23T02:04:38.416Z,9.70
2019-03-23T02:07:13.737Z,9.70
2019-03-23T02:09:36.266Z,9.60
2019-03-23T02:12:04.232Z,9.60
2019-03-23T02:14:32.113Z,9.60
2019-03-23T02:17:00.077Z,9.60
2019-03-23T02:19:28.028Z,9.50
2019-03-23T02:21:56.025Z,9.50
2019-03-23T02:24:23.988Z,9.50
2019-03-23T02:26:51.971Z,9.50
2019-03-23T02:29:20.373Z,9.60
2019-03-23T02:31:48.392Z,9.50
2019-03-23T02:34:16.462Z,9.50
2019-03-23T02:36:44.446Z,9.50
2019-03-23T02:39:12.507Z,9.60
2019-03-23T02:41:40.466Z,9.60
2019-03-23T02:44:08.452Z,9.60
2019-03-23T02:46:36.416Z,9.60
2019-03-23T02:49:04.373Z,9.70
2019-03-23T02:51:32.391Z,9.70
2019-03-23T02:54:00.571Z,9.70
2019-03-23T02:56:28.526Z,9.70
2019-03-23T02:58:56.514Z,9.70
2019-03-23T03:01:24.505Z,9.70
2019-03-23T03:03:52.460Z,9.70
2019-03-23T03:06:20.551Z,9.80
2019-03-23T03:08:48.545Z,9.80
2019-03-23T03:11:16.506Z,9.80
2019-03-23T03:13:44.464Z,9.80
2019-03-23T03:16:12.457Z,9.80
2019-03-23T03:18:40.415Z,9.80
2019-03-23T03:21:08.376Z,9.80
2019-03-23T03:23:36.357Z,9.80
2019-03-23T03:26:04.333Z,9.80
2019-03-23T03:28:32.378Z,9.90
2019-03-23T03:31:00.358Z,9.80
2019-03-23T03:33:28.334Z,9.90
2019-03-23T03:35:56.543Z,9.90
2019-03-23T03:38:24.522Z,9.80
2019-03-23T03:40:52.629Z,9.80
2019-03-23T03:43:20.796Z,9.80
2019-03-23T03:45:48.936Z,9.90
2019-03-23T03:48:16.935Z,9.90
2019-03-23T03:50:44.898Z,9.90
2019-03-23T03:53:12.791Z,9.90
2019-03-23T03:55:40.745Z,9.90
2019-03-23T03:58:08.714Z,9.90
2019-03-23T04:00:36.800Z,9.90
2019-03-23T04:03:04.761Z,9.90
2019-03-23T04:05:32.825Z,9.90
2019-03-23T04:08:10.913Z,9.90
2019-03-23T04:10:30.705Z,9.90
2019-03-23T04:12:59.064Z,9.90
2019-03-23T04:15:27.029Z,9.90
2019-03-23T04:17:54.983Z,9.90
2019-03-23T04:20:22.964Z,9.90
2019-03-23T04:22:50.946Z,9.90
2019-03-23T04:25:18.906Z,9.80
2019-03-23T04:27:46.909Z,9.90
2019-03-23T04:30:14.972Z,9.90
2019-03-23T04:32:43.136Z,9.90
2019-03-23T04:35:11.246Z,9.90
2019-03-23T04:37:39.324Z,9.90
2019-03-23T04:40:08.177Z,9.90
2019-03-23T04:42:36.146Z,9.90
2019-03-23T04:45:05.441Z,9.90
2019-03-23T04:47:33.411Z,9.90
2019-03-23T04:50:01.661Z,9.80
2019-03-23T04:52:29.617Z,9.90
2019-03-23T04:54:57.585Z,9.90
2019-03-23T04:57:25.570Z,9.90
2019-03-23T04:59:53.740Z,9.80
2019-03-23T05:02:21.701Z,9.80
2019-03-23T05:04:49.761Z,9.80
2019-03-23T05:07:17.789Z,9.80
2019-03-23T05:09:45.752Z,9.80
2019-03-23T05:12:13.852Z,9.80
2019-03-23T05:14:41.825Z,9.80
2019-03-23T05:17:09.890Z,9.80
2019-03-23T05:19:37.988Z,9.80
2019-03-23T05:22:06.055Z,9.80
2019-03-23T05:24:34.012Z,9.80
2019-03-23T05:27:01.982Z,9.70
2019-03-23T05:29:29.934Z,9.80
2019-03-23T05:31:57.937Z,9.70
2019-03-23T05:34:25.894Z,9.80
2019-03-23T05:36:53.884Z,9.70
2019-03-23T05:39:21.859Z,9.70
2019-03-23T05:41:49.867Z,9.70
2019-03-23T05:44:18.974Z,9.70
2019-03-23T05:46:46.945Z,9.70
2019-03-23T05:49:14.914Z,9.70
2019-03-23T05:51:42.876Z,9.80
2019-03-23T05:54:10.920Z,9.80
2019-03-23T05:56:38.893Z,9.80
2019-03-23T05:59:06.968Z,9.80
2019-03-23T06:01:34.917Z,9.80
2019-03-23T06:04:04.008Z,9.80
2019-03-23T06:06:31.968Z,9.80
2019-03-23T06:09:00.059Z,9.80
2019-03-23T06:11:28.020Z,9.80
2019-03-23T06:13:56.006Z,9.80
2019-03-23T06:16:23.984Z,9.80
2019-03-23T06:18:51.954Z,9.80
2019-03-23T06:21:19.922Z,9.80
2019-03-23T06:23:47.922Z,9.90
2019-03-23T06:26:15.855Z,9.90
2019-03-23T06:28:43.920Z,9.90
2019-03-23T06:31:11.912Z,9.90
2019-03-23T06:33:39.895Z,9.80
2019-03-23T06:36:07.853Z,9.80
2019-03-23T06:38:35.837Z,9.90
2019-03-23T06:41:04.116Z,9.90
2019-03-23T06:43:32.075Z,9.90
2019-03-23T06:46:00.102Z,9.90
2019-03-23T06:48:28.076Z,10.00
2019-03-23T06:50:56.148Z,10.00
2019-03-23T06:53:24.228Z,10.00
2019-03-23T06:55:52.319Z,10.00
2019-03-23T06:58:20.351Z,10.00
2019-03-23T07:00:48.420Z,10.10
2019-03-23T07:03:16.614Z,10.20
2019-03-23T07:05:44.634Z,10.20
2019-03-23T07:08:12.668Z,10.30
2019-03-23T07:10:40.656Z,10.30
2019-03-23T07:13:08.624Z,10.30
2019-03-23T07:15:36.682Z,10.40
2019-03-23T07:18:04.896Z,10.50
2019-03-23T07:20:33.235Z,10.50
2019-03-23T07:23:01.221Z,10.60
2019-03-23T07:25:29.192Z,10.60
2019-03-23T07:27:57.151Z,10.60
2019-03-23T07:30:25.142Z,10.70
2019-03-23T07:32:53.109Z,10.70
2019-03-23T07:35:21.079Z,10.70
2019-03-23T07:37:49.262Z,10.70
2019-03-23T07:40:17.226Z,10.70
2019-03-23T07:42:45.239Z,10.80
2019-03-23T07:45:13.325Z,10.80
2019-03-23T07:47:41.333Z,10.80
2019-03-23T07:50:09.673Z,10.80
2019-03-23T07:52:37.644Z,10.80
2019-03-23T07:55:13.150Z,10.90
2019-03-23T07:57:41.133Z,10.80
2019-03-23T08:00:10.723Z,10.80
2019-03-23T08:02:42.841Z,10.80
2019-03-23T08:05:10.780Z,10.80
2019-03-23T08:07:38.744Z,10.80
2019-03-23T08:10:07.040Z,10.80
2019-03-23T08:12:35.050Z,10.90
2019-03-23T08:15:03.331Z,10.90
2019-03-23T08:17:31.313Z,10.90
2019-03-23T08:19:59.307Z,10.90
2019-03-23T08:22:27.277Z,10.90
2019-03-23T08:24:55.361Z,10.80
2019-03-23T08:27:23.326Z,10.80
2019-03-23T08:29:51.374Z,10.80
2019-03-23T08:32:19.626Z,10.80
2019-03-23T08:34:47.673Z,10.80
2019-03-23T08:37:15.634Z,10.80
2019-03-23T08:39:48.512Z,10.80
2019-03-23T08:42:13.439Z,10.80
2019-03-23T08:44:41.286Z,10.80
2019-03-23T08:47:09.356Z,10.90
2019-03-23T08:49:37.339Z,10.90
2019-03-23T08:52:05.420Z,10.90
2019-03-23T08:54:33.438Z,10.90
2019-03-23T08:57:01.394Z,10.90
2019-03-23T08:59:29.389Z,10.90
2019-03-23T09:01:57.451Z,10.90
2019-03-23T09:04:25.463Z,10.90
2019-03-23T09:06:53.470Z,10.90
2019-03-23T09:09:21.436Z,10.90
2019-03-23T09:11:49.493Z,10.90
2019-03-23T09:14:18.001Z,10.90
2019-03-23T09:16:45.970Z,10.90
2019-03-23T09:19:14.101Z,11.00
2019-03-23T09:21:42.170Z,10.90
2019-03-23T09:24:10.118Z,10.90
2019-03-23T09:26:38.835Z,11.00
2019-03-23T09:29:06.972Z,11.00
2019-03-23T09:31:35.114Z,11.00
2019-03-23T09:34:03.373Z,11.00
2019-03-23T09:36:31.841Z,11.00
2019-03-23T09:39:00.520Z,11.10
2019-03-23T09:41:28.529Z,11.10
2019-03-23T09:43:56.513Z,11.10
2019-03-23T09:46:24.495Z,11.10
2019-03-23T09:48:52.676Z,11.10
2019-03-23T09:51:20.642Z,11.10
2019-03-23T09:53:48.854Z,11.20
2019-03-23T09:56:16.850Z,11.10
2019-03-23T09:58:45.020Z,11.20
2019-03-23T10:01:13.204Z,11.20
2019-03-23T10:03:42.877Z,11.20
2019-03-23T10:06:10.979Z,11.30
2019-03-23T10:08:38.936Z,11.30
2019-03-23T10:11:06.907Z,11.30
2019-03-23T10:13:34.899Z,11.30
2019-03-23T10:16:04.361Z,11.30
2019-03-23T10:18:32.421Z,11.30
2019-03-23T10:21:00.595Z,11.30
2019-03-23T10:23:28.696Z,11.40
2019-03-23T10:25:57.041Z,11.30
2019-03-23T10:28:25.129Z,11.30
2019-03-23T10:30:53.287Z,11.30
2019-03-23T10:33:21.358Z,11.40
2019-03-23T10:35:49.476Z,11.40
2019-03-23T10:38:17.449Z,11.40
2019-03-23T10:40:45.429Z,11.40
2019-03-23T10:43:13.497Z,11.50
2019-03-23T10:45:44.335Z,11.60
2019-03-23T10:48:12.221Z,11.60
2019-03-23T10:50:40.573Z,11.50
2019-03-23T10:53:08.585Z,11.50
2019-03-23T10:55:36.565Z,11.60
2019-03-23T10:58:04.534Z,11.60
2019-03-23T11:00:32.420Z,11.50
2019-03-23T11:03:00.394Z,11.60
2019-03-23T11:05:28.369Z,11.60
2019-03-23T11:07:56.457Z,11.60
2019-03-23T11:10:27.433Z,11.60
2019-03-23T11:12:55.335Z,11.60
2019-03-23T11:15:23.287Z,11.70
2019-03-23T11:17:51.246Z,11.70
2019-03-23T11:20:19.312Z,11.70
2019-03-23T11:22:47.405Z,11.80
2019-03-23T11:25:15.399Z,11.80
2019-03-23T11:27:43.535Z,11.90
2019-03-23T11:30:12.016Z,11.90
2019-03-23T11:32:39.980Z,11.90
2019-03-23T11:35:08.435Z,11.90
2019-03-23T11:37:36.609Z,12.00
2019-03-23T11:40:05.273Z,12.00
2019-03-23T11:42:33.185Z,12.10
2019-03-23T11:45:01.794Z,12.20
2019-03-23T11:47:29.884Z,12.20
2019-03-23T11:49:57.878Z,12.30
2019-03-23T11:52:25.945Z,12.40
2019-03-23T11:54:54.259Z,12.40
2019-03-23T11:57:22.238Z,12.50
2019-03-23T11:59:50.200Z,12.50
2019-03-23T12:02:18.403Z,12.60
2019-03-23T12:04:46.366Z,12.70
2019-03-23T12:07:14.481Z,12.70
2019-03-23T12:09:42.489Z,12.60
2019-03-23T12:12:10.463Z,12.60
2019-03-23T12:14:38.439Z,12.60
2019-03-23T12:17:06.395Z,12.60
2019-03-23T12:19:34.376Z,12.60
2019-03-23T12:22:02.446Z,12.60
2019-03-23T12:24:30.547Z,12.60
2019-03-23T12:26:58.621Z,12.70
2019-03-23T12:29:26.580Z,12.70
2019-03-23T12:31:54.651Z,12.70
2019-03-23T12:34:22.603Z,12.80
2019-03-23T12:36:50.602Z,12.90
2019-03-23T12:39:18.728Z,12.90
2019-03-23T12:41:46.705Z,12.90
2019-03-23T12:44:14.724Z,12.90
2019-03-23T12:46:48.256Z,13.00
2019-03-23T12:49:12.523Z,13.10
2019-03-23T12:51:40.452Z,13.20
2019-03-23T12:54:08.459Z,13.30
2019-03-23T12:56:36.426Z,13.30
2019-03-23T12:59:04.393Z,13.30
2019-03-23T13:01:32.384Z,13.30
2019-03-23T13:04:00.369Z,13.30
2019-03-23T13:06:28.460Z,13.40
2019-03-23T13:08:56.541Z,13.40
2019-03-23T13:11:31.096Z,13.40
2019-03-23T13:13:54.317Z,13.50
2019-03-23T13:16:22.350Z,13.50
2019-03-23T13:18:50.456Z,13.50
2019-03-23T13:21:18.708Z,13.50
2019-03-23T13:23:46.836Z,13.50
2019-03-23T13:26:14.851Z,13.50
2019-03-23T13:28:42.876Z,13.50
2019-03-23T13:31:10.856Z,13.50
2019-03-23T13:33:38.825Z,13.60
2019-03-23T13:36:07.449Z,13.60
2019-03-23T13:38:35.437Z,13.60
2019-03-23T13:41:03.505Z,13.50
2019-03-23T13:43:31.538Z,13.40
2019-03-23T13:45:59.528Z,13.40
2019-03-23T13:48:27.538Z,13.40
2019-03-23T13:50:55.647Z,13.40
2019-03-23T13:53:23.673Z,13.40
2019-03-23T13:55:51.724Z,13.40
2019-03-23T13:58:19.841Z,13.40
2019-03-23T14:00:47.914Z,13.40
2019-03-23T14:03:15.903Z,13.30
2019-03-23T14:05:43.896Z,13.30
2019-03-23T14:08:11.927Z,13.30
2019-03-23T14:10:39.975Z,13.20
2019-03-23T14:13:08.151Z,13.20
2019-03-23T14:15:37.797Z,13.30
2019-03-23T14:18:05.813Z,13.30
2019-03-23T14:20:33.811Z,13.20
2019-03-23T14:23:03.063Z,13.20
2019-03-23T14:25:31.368Z,13.10
2019-03-23T14:27:59.392Z,13.10
2019-03-23T14:30:27.377Z,13.10
2019-03-23T14:32:55.536Z,13.10
2019-03-23T14:35:23.504Z,13.10
2019-03-23T14:37:51.400Z,13.10
2019-03-23T14:40:19.544Z,13.00
2019-03-23T14:42:47.560Z,13.00
2019-03-23T14:45:15.690Z,12.90
2019-03-23T14:47:43.868Z,12.90
2019-03-23T14:50:12.137Z,12.90
2019-03-23T14:52:40.208Z,12.80
2019-03-23T14:55:08.192Z,12.90
2019-03-23T14:57:36.184Z,12.80
2019-03-23T15:00:05.739Z,12.80
2019-03-23T15:02:34.068Z,12.90
2019-03-23T15:05:02.517Z,12.80
2019-03-23T15:07:30.585Z,12.80
2019-03-23T15:09:58.575Z,12.70
2019-03-23T15:12:26.575Z,12.70
2019-03-23T15:14:54.548Z,12.70
2019-03-23T15:17:22.638Z,12.70
2019-03-23T15:19:50.589Z,12.80
2019-03-23T15:22:18.720Z,12.70
2019-03-23T15:24:46.797Z,12.80
2019-03-23T15:27:14.868Z,12.70
2019-03-23T15:29:42.939Z,12.80
2019-03-23T15:32:10.887Z,12.70
2019-03-23T15:34:38.975Z,12.70
2019-03-23T15:37:07.064Z,12.70
2019-03-23T15:39:35.033Z,12.60
2019-03-23T15:42:03.155Z,12.60
2019-03-23T15:44:31.114Z,12.60
2019-03-23T15:46:59.245Z,12.60
2019-03-23T15:49:27.303Z,12.50
2019-03-23T15:51:55.424Z,12.50
2019-03-23T15:54:23.374Z,12.50
2019-03-23T15:56:51.482Z,12.50
2019-03-23T15:59:19.536Z,12.40
2019-03-23T16:01:47.474Z,12.40
2019-03-23T16:04:15.557Z,12.40
2019-03-23T16:06:43.552Z,12.40
2019-03-23T16:09:11.537Z,12.30
2019-03-23T16:11:39.488Z,12.30
2019-03-23T16:14:07.500Z,12.20
2019-03-23T16:16:35.549Z,12.20
2019-03-23T16:19:03.541Z,12.20
2019-03-23T16:21:31.517Z,12.20
2019-03-23T16:23:59.496Z,12.10
2019-03-23T16:26:27.602Z,12.10
2019-03-23T16:28:55.646Z,12.10
2019-03-23T16:31:23.725Z,12.00
2019-03-23T16:33:51.743Z,12.10
2019-03-23T16:36:19.729Z,12.00
2019-03-23T16:38:47.945Z,12.10
2019-03-23T16:41:16.039Z,12.10
2019-03-23T16:43:44.013Z,12.10
2019-03-23T16:46:11.968Z,12.10
2019-03-23T16:48:40.161Z,12.10
2019-03-23T16:51:08.221Z,12.10
2019-03-23T16:53:36.194Z,12.10
2019-03-23T16:56:04.292Z,12.00
2019-03-23T16:58:32.255Z,12.00
2019-03-23T17:01:00.224Z,11.90
2019-03-23T17:03:28.173Z,11.80
2019-03-23T17:05:56.120Z,11.70
2019-03-23T17:08:24.277Z,11.60
2019-03-23T17:10:55.047Z,11.60
2019-03-23T17:13:23.136Z,11.50
2019-03-23T17:15:51.113Z,11.40
2019-03-23T17:18:19.157Z,11.40
2019-03-23T17:20:47.203Z,11.40
2019-03-23T17:23:15.168Z,11.30
2019-03-23T17:25:43.220Z,11.30
2019-03-23T17:28:11.192Z,11.30
2019-03-23T17:30:39.157Z,11.30
2019-03-23T17:33:08.866Z,11.30
2019-03-23T17:35:36.842Z,11.20
2019-03-23T17:38:04.956Z,11.20
2019-03-23T17:40:33.013Z,11.20
2019-03-23T17:43:05.830Z,11.10
2019-03-23T17:45:32.236Z,11.10
2019-03-23T17:48:00.202Z,11.10
2019-03-23T17:50:28.238Z,11.10
2019-03-23T17:52:56.193Z,11.20
2019-03-23T17:55:24.291Z,11.10
2019-03-23T17:57:55.003Z,11.10
2019-03-23T18:00:22.967Z,11.10
2019-03-23T18:02:51.113Z,11.10
2019-03-23T18:05:19.181Z,11.10
2019-03-23T18:07:47.269Z,11.10
2019-03-23T18:10:15.440Z,11.10
2019-03-23T18:12:43.420Z,11.10
2019-03-23T18:15:12.269Z,11.10
2019-03-23T18:17:40.217Z,11.10
2019-03-23T18:20:08.349Z,11.10
2019-03-23T18:22:36.436Z,11.20
2019-03-23T18:25:04.758Z,11.20
2019-03-23T18:27:32.744Z,11.20
2019-03-23T18:30:02.887Z,11.20
2019-03-23T18:32:31.103Z,11.20
2019-03-23T18:34:59.269Z,11.20
2019-03-23T18:37:27.221Z,11.20
2019-03-23T18:39:55.308Z,11.30
2019-03-23T18:42:23.267Z,11.30
2019-03-23T18:44:51.262Z,11.30
2019-03-23T18:47:19.421Z,11.30
2019-03-23T18:49:47.519Z,11.30
2019-03-23T18:52:15.532Z,11.30
2019-03-23T18:54:43.633Z,11.30
2019-03-23T18:57:11.601Z,11.30
2019-03-23T18:59:39.593Z,11.30
2019-03-23T19:02:07.586Z,11.30
2019-03-23T19:04:35.549Z,11.30
2019-03-23T19:07:03.699Z,11.30
2019-03-23T19:09:31.709Z,11.30
2019-03-23T19:11:59.685Z,11.30
2019-03-23T19:14:28.092Z,11.20
2019-03-23T19:16:56.084Z,11.20
2019-03-23T19:19:24.085Z,11.20
2019-03-23T19:21:52.048Z,11.20
2019-03-23T19:24:20.089Z,11.20
2019-03-23T19:26:48.077Z,11.20
2019-03-23T19:29:16.112Z,11.30
2019-03-23T19:31:44.083Z,11.40
2019-03-23T19:34:12.051Z,11.30
2019-03-23T19:36:40.026Z,11.30
2019-03-23T19:39:08.727Z,11.30
2019-03-23T19:41:36.579Z,11.30
2019-03-23T19:44:04.545Z,11.30
2019-03-23T19:46:32.627Z,11.30
2019-03-23T19:49:00.572Z,11.30
2019-03-23T19:51:28.554Z,11.30
2019-03-23T19:53:56.553Z,11.30
2019-03-23T19:56:24.540Z,11.30
2019-03-23T19:58:52.521Z,11.20
2019-03-23T20:01:20.433Z,11.20
2019-03-23T20:03:48.420Z,11.20
2019-03-23T20:06:16.385Z,11.20
2019-03-23T20:08:44.357Z,11.10
2019-03-23T20:11:12.368Z,11.20
2019-03-23T20:13:40.386Z,11.10
2019-03-23T20:16:09.753Z,11.10
2019-03-23T20:18:37.721Z,11.10
2019-03-23T20:21:06.065Z,11.10
2019-03-23T20:23:33.937Z,11.10
2019-03-23T20:26:02.006Z,11.10
2019-03-23T20:28:31.304Z,11.10
2019-03-23T20:31:02.269Z,11.10
2019-03-23T20:33:30.338Z,11.00
2019-03-23T20:36:01.374Z,11.00
2019-03-23T20:38:35.127Z,11.00
2019-03-23T20:41:03.100Z,10.90
2019-03-23T20:43:34.236Z,10.90
2019-03-23T20:46:05.047Z,10.90
2019-03-23T20:48:33.472Z,10.80
2019-03-23T20:51:01.956Z,10.80
2019-03-23T20:53:31.421Z,10.80
2019-03-23T20:56:04.382Z,10.80
2019-03-23T20:58:32.335Z,10.80
2019-03-23T21:01:00.428Z,10.80
2019-03-23T21:03:28.469Z,10.80
2019-03-23T21:05:58.316Z,10.80
2019-03-23T21:08:26.744Z,10.80
2019-03-23T21:10:54.780Z,10.80
2019-03-23T21:13:23.964Z,10.70
2019-03-23T21:15:53.882Z,10.80
2019-03-23T21:18:22.208Z,10.80
2019-03-23T21:20:51.120Z,10.80
2019-03-23T21:23:18.991Z,10.70
2019-03-23T21:25:46.981Z,10.70
2019-03-23T21:28:15.311Z,10.70
2019-03-23T21:30:43.418Z,10.70
2019-03-23T21:33:12.026Z,10.70
2019-03-23T21:35:40.165Z,10.60
2019-03-23T21:38:08.593Z,10.70
2019-03-23T21:40:36.698Z,10.60
2019-03-23T21:43:07.381Z,10.70
2019-03-23T21:45:39.522Z,10.70
2019-03-23T21:48:07.604Z,10.60
2019-03-23T21:50:46.785Z,10.60
2019-03-23T21:53:05.835Z,10.50
2019-03-23T21:55:33.814Z,10.50
2019-03-23T21:58:01.807Z,10.40
2019-03-23T22:00:31.292Z,10.50
2019-03-23T22:02:59.568Z,10.40
2019-03-23T22:05:27.577Z,10.40
2019-03-23T22:07:55.645Z,10.40
2019-03-23T22:10:23.719Z,10.40
2019-03-23T22:12:51.795Z,10.30
2019-03-23T22:15:19.756Z,10.40
2019-03-23T22:17:47.764Z,10.40
2019-03-23T22:20:15.754Z,10.30
2019-03-23T22:22:43.732Z,10.30
2019-03-23T22:25:11.793Z,10.40
2019-03-23T22:27:39.820Z,10.40
2019-03-23T22:30:10.104Z,10.30
2019-03-23T22:32:38.068Z,10.30
2019-03-23T22:35:07.014Z,10.20
2019-03-23T22:37:35.084Z,10.10
2019-03-23T22:40:05.345Z,10.10
2019-03-23T22:42:33.306Z,10.10
2019-03-23T22:45:01.313Z,10.10
2019-03-23T22:47:29.309Z,10.10
2019-03-23T22:49:57.374Z,10.00
2019-03-23T22:52:25.426Z,10.00
2019-03-23T22:54:53.408Z,10.00
2019-03-23T22:57:21.466Z,9.90
2019-03-23T22:59:49.452Z,9.90
2019-03-23T23:02:17.532Z,9.90
2019-03-23T23:04:45.606Z,9.90
2019-03-23T23:07:13.581Z,9.80
2019-03-23T23:09:41.559Z,9.80
2019-03-23T23:12:09.525Z,9.80
2019-03-23T23:14:37.492Z,9.70
2019-03-23T23:17:05.578Z,9.70
2019-03-23T23:19:33.542Z,9.70
2019-03-23T23:22:01.528Z,9.70
2019-03-23T23:24:29.498Z,9.60
2019-03-23T23:26:57.484Z,9.60
2019-03-23T23:29:25.460Z,9.60
2019-03-23T23:31:53.434Z,9.50
2019-03-23T23:34:21.428Z,9.60
2019-03-23T23:36:49.622Z,9.60
2019-03-23T23:39:17.824Z,9.60
2019-03-23T23:41:45.845Z,9.60
2019-03-23T23:44:13.820Z,9.50
2019-03-23T23:46:42.042Z,9.50
2019-03-23T23:49:10.011Z,9.50
2019-03-23T23:51:37.994Z,9.50
2019-03-23T23:54:05.977Z,9.50
2019-03-23T23:56:33.984Z,9.50
2019-03-23T23:59:02.021Z,9.40
